KAMN/AMN METAR and TAF weather

Enter ICAO airport designator
Station Type Date Time Source
KAMN METAR 2022/06/27 17:55 UTC NOAA

KAMN 271755Z AUTO 28012G19KT 10SM SCT060 21/04 A3016 RMK AO2 T02140044 10220 20152


Station Type Date Time Source
KAMN Decoded METAR 2022/06/27 17:55 UTC NOAA

Alma, Gratiot Community Airport, MI, United States (KAMN) 43-19-19N 084-41-16W
Jun 27, 2022 - 01:55 PM EDT / 2022.06.27 1755 UTC
Wind: from the W (280 degrees) at 14 MPH (12 KT) gusting to 22 MPH (19 KT):0
Visibility: 10 mile(s):0
Sky conditions: partly cloudy
Temperature: 70.5 F (21.4 C)
Dew Point: 39.9 F (4.4 C)
Relative Humidity: 32%
Pressure (altimeter): 30.16 in. Hg (1021 hPa)
ob: KAMN 271755Z AUTO 28012G19KT 10SM SCT060 21/04 A3016 RMK AO2 T02140044 10220 20152
cycle: 18

Station Type Date Time Source
KAMN TAF UTC NOAA

Error!

Example: see airport list